Portada
METAR-TAF:

METAR-TAF

Aeroports :

Gladstone, Austràlia

latitud: 23-52-11S, longitud: 151-13-22E, altitud: 18 m

Observació

L'informe es va fer fa 42 minuts, a les 23:00 UTC
Vent 10 kt del Est/Sud-Est
Temperatura 30°C
Humitat 55%
Pressió 1006 hPa
Visibilitat 10 km o més

METAR: YGLA 202300Z AUTO 12010KT 9999 // NCD 30/20 Q1006

Hora: 09:42 (23:42 UTC)

Pronòstic

L'informe es va fer fa 7 hores i 38 minuts, a les 16:04 UTC
Pronòstic vàlid del 20 a les 18 UTC al 21 a les 06 UTC
Vent 6 kt del Sud/Sud-Oest
Visibilitat 10 km o més
Cel ennuvolat a una alçada de 1800 ft
A partir de les 20 a les 2200 UTC
Vent 12 kt del Sud/Sud-Est
Visibilitat 10 km o més
Escasses núvols a una alçada de 4500 ft
A partir de les 21 a les 0200 UTC
Vent 13 kt del Est
Visibilitat 10 km o més
Escasses núvols a una alçada de 4500 ft

TAF: YGLA 201604Z 2018/2106 20006KT 9999 BKN018 FM202200 15012KT 9999 FEW045 FM210200 10013KT 9999 FEW045

Observacions i pronòstics meteorològics de més de 4000 aeroports (METAR i TAF).

Les estacions disponibles són els punts grocs i vermells al mapa.

Posi el ratolí al punt desitjat per veure el nom de l'estació.

Feu clic per veure les observacions i els pronòstics meteorològics.

Per canviar el mapa: feu clic els botons verds amb una creu de color negre per apropar; al botó verd amb un guió per allunyar la imatge; o en les fletxes verdes per a mapes adjacents.


METAR-TAF: